Thunderstorms From: 21-05-2018 22:59 Until: 22-05-2018 22:59 warning for: Thunderstorms Level: Yellow info button


Nieuwrode (Holsbeek) more information Nieuwrode (Holsbeek)


Thunder radar more information blitzortung!


Rain radar more information rain snow radar



Nearby METAR Reports

  
EBBR - Brussels International Airport, Belgium
Distance from station: W 14km
Updated: 21-05-2018 23:50
Clear
Clear  
 Wind from ENE
Wind: ENE 4 km/h
Temperature:  15°C
Dew Point:  13°C
Humidity:  88%
Barometer:  1012 hPa
Summary:  Clear
Visibility:  greater than 10 km
2018/05/21 21:50 EBBR 212150Z 07002KT CAVOK 15/13 Q1012 NOSIG
EBBE - Beauvechain (Bevekom), Belgium
Distance from station: SSE 17km
Updated: 21-05-2018 23:55
Overcast
Overcast  
 Wind from varies
Wind: varies 4 km/h
Temperature:  17°C
Dew Point:  12°C
Humidity:  73%
Barometer:  1012 hPa
Clouds:  Overcast
Visibility:  10 km
Cloud details:  Few Clouds 3353 m
Partly Cloudy 3962 m
Overcast 4572 m
2018/05/21 21:55 EBBE 212155Z AUTO VRB02KT 9999 FEW110/// SCT130/// OVC150/// 17/12 Q1012 BLU
EBDT - Schaffen, Belgium
Distance from station: ENE 29km
Updated: 21-05-2018 23:55
Mostly Cloudy
Mostly Cloudy  
 Wind from varies
Wind: varies 4 km/h
Temperature:  17°C
Dew Point:  11°C
Humidity:  68%
Barometer:  1012 hPa
Clouds:  Mostly Cloudy
Visibility:  10 km
Cloud details:  Partly Cloudy 3962 m
Mostly Cloudy 4877 m
2018/05/21 21:55 EBDT 212155Z AUTO VRB02KT 9999 SCT130/// BKN160/// 17/11 Q1012 BLU
EBAW - Antwerp/Deurne, Belgium
Distance from station: NNW 38km
Updated: 21-05-2018 23:50
Clear
Clear  
 Wind from NW
Wind: NW 6 km/h
Temperature:  16°C
Dew Point:  14°C
Humidity:  88%
Barometer:  1012 hPa
Summary:  Clear
Visibility:  greater than 10 km
2018/05/21 21:50 EBAW 212150Z AUTO 32003KT CAVOK 16/14 Q1012
EBCI - Charleroi/Gosselies, Belgium
Distance from station: SSW 51km
Updated: 21-05-2018 23:50
Clear
Clear  
 Wind from varies
Wind: varies 2 km/h
Temperature:  17°C
Dew Point:  14°C
Humidity:  83%
Barometer:  1012 hPa
Summary:  Clear
Visibility:  greater than 10 km
2018/05/21 21:50 EBCI 212150Z VRB01KT CAVOK 17/14 Q1012 NOSIG
EBLG - Bierset/Liege, Belgium
Distance from station: ESE 60km
Updated: 21-05-2018 23:50
Clear
Clear  
 Wind from SE
Wind: SE 7 km/h
Temperature:  16°C
Dew Point:  13°C
Humidity:  83%
Barometer:  1012 hPa
Summary:  Clear
Visibility:  greater than 10 km
2018/05/21 21:50 EBLG 212150Z 14004KT 110V230 CAVOK 16/13 Q1012 NOSIG

Script developed by  Saratoga-weather.org Adapted for the template by  Weerstation Leuven

You find our weather info also at:


Het Weer Aktueel

European Weather Network

Weather Underground

AWEKAS

HAMweather, WeatherForYou, PWS Weather

Equipment we use:


Weather-station
Davis VP2 Plus

Weather-program
Weather Display

Davis VP2 Plus

Weather Display